• Join FlightAware (Why Join?)
  • Login
  • US Flag 
11:11AM EDT


 

Airport Tracker/Info


-or-


 

Live Flight TrackerFlight Track Log ✈ UAL139 ✈ 23-Oct-2013 ✈ KDEN - RJAA / NRT

Flight Track Log - Related Links

Times and Time Zones

All times are in EDT time to prevent confusion due to time zone crossing. See the UAL139 flight status page for this flight to view local times or setup timezone preferences in your user account.

Time Position Orientation Groundspeed Altitude Reporting Facility
EDT Latitude Longitude Course Direction KTS MPH feet Rate Location/Type
02:28PM 39.8953 -104.7019 333° Northwest 186 214 6,300  Level FlightAware ADS-B (KEIK)
02:28PM 39.9032 -104.7081 329° Northwest 193 222 6,600 1,200 Climbing FlightAware ADS-B (KEIK)
02:28PM 39.9064 -104.7119 318° Northwest 208 239 6,700 1,320 Climbing FlightAware ADS-B (KEIK)
02:29PM 39.9220 -104.7850 286° West 267 307 7,900 1,740 Climbing FlightAware
02:30PM 39.9320 -104.8440 282° West 283 326 9,200 2,040 Climbing FlightAware
02:30PM 39.9441 -104.9339 280° West 319 367 10,900 2,160 Climbing FlightAware ADS-B (KEIK)
02:31PM 39.9493 -105.0129 275° West 334 384 12,500 2,520 Climbing FlightAware ADS-B (KEIK)
02:32PM 39.9556 -105.0690 278° West 342 394 13,900 2,820 Climbing FlightAware ADS-B (KEIK)
02:32PM 39.9653 -105.1520 279° West 347 399 15,800 2,700 Climbing FlightAware ADS-B (KEIK)
02:33PM 39.9753 -105.2379 279° West 355 409 17,500 2,340 Climbing FlightAware ADS-B (KEIK)
02:34PM 39.9827 -105.3067 278° West 364 419 19,000 2,160 Climbing FlightAware ADS-B (KEIK)
02:34PM 39.9832 -105.3905 271° West 373 429 20,100 2,160 Climbing FlightAware ADS-B (KEIK)
02:35PM 39.9800 -105.4870 268° West 380 437 21,600 1,800 Climbing FlightAware
02:37PM 39.9734 -105.7258 268° West 410 472 24,500 1,680 Climbing FlightAware ADS-B (KEIK)
02:37PM 39.9719 -105.8190 269° West 419 482 25,600 1,560 Climbing FlightAware ADS-B (KEIK)
02:38PM 39.9738 -105.9046 272° West 425 489 26,400 1,560 Climbing FlightAware ADS-B (KEIK)
02:39PM 39.9813 -106.0378 274° West 434 499 27,800 1,500 Climbing FlightAware ADS-B (KEIK)
02:40PM 39.9896 -106.1932 274° West 441 507 29,200 1,320 Climbing FlightAware ADS-B (KANK)
02:40PM 39.9925 -106.2471 274° West 441 507 29,800 1,260 Climbing FlightAware ADS-B (KANK)
02:41PM 39.9963 -106.3204 274° West 455 524 30,700 1,260 Climbing FlightAware ADS-B (KEIK)
02:41PM 40.0162 -106.4636 280° West 457 526 31,300 1,080 Climbing FlightAware ADS-B (KANK)
02:42PM 40.0610 -106.5570 302° West 461 531 32,000 1,200 Climbing FlightAware
02:42PM 39.9963 -106.3204 110° East 459 528 32,800 1,140 Climbing FlightAware ADS-B (KEIK)
02:43PM 40.1330 -106.7000 295° West 467 537 33,200 900 Climbing FlightAware
02:43PM 40.1740 -106.7800 304° West 471 542 33,800 1,140 Climbing FlightAware
02:45PM 40.1424 -106.7175 123° Southeast 476 548 35,200 960 Climbing FlightAware ADS-B (KEIK)
02:46PM 40.3620 -107.1550 303° West 476 548 36,400 900 Climbing FlightAware
02:47PM 40.4200 -107.2712 303° West 470 541 37,400 1,080 Climbing FlightAware ADS-B (KMTJ)
02:47PM 40.4617 -107.3551 303° West 469 540 37,900 480 Climbing FlightAware ADS-B (KMTJ)
02:48PM 40.5077 -107.4482 303° West 469 540 38,000 60 Climbing FlightAware ADS-B (KMTJ)
02:49PM 40.5429 -107.5198 303° West 469 540 38,000  Level FlightAware ADS-B (KMTJ)
02:49PM 40.5792 -107.5934 303° West 469 540 38,000  Level FlightAware ADS-B (KMTJ)
02:50PM 40.6142 -107.6646 303° West 469 540 38,000  Level FlightAware ADS-B (KMTJ)
02:50PM 40.6498 -107.7372 303° West 468 539 38,000  Level FlightAware ADS-B (KMTJ)
02:51PM 40.6844 -107.8080 303° West 468 539 38,000  Level FlightAware ADS-B (KMTJ)
02:51PM 40.7160 -107.8726 303° West 469 540 38,000  Level FlightAware ADS-B (KMTJ)
02:52PM 40.7636 -107.9706 303° West 470 541 38,000  Level FlightAware ADS-B (KMTJ)
02:52PM 40.8013 -108.0481 303° West 469 540 38,000  Level FlightAware ADS-B (KMTJ)
02:53PM 40.8371 -108.1223 303° West 469 540 38,000  Level FlightAware ADS-B (KMTJ)
02:53PM 40.8820 -108.2150 303° West 470 541 38,000  Level FlightAware
02:54PM 40.9470 -108.3510 302° West 471 542 38,000  Level FlightAware
02:55PM 41.0180 -108.4980 303° West 470 541 38,000  Level FlightAware
02:56PM 41.0550 -108.5760 302° West 471 542 38,000  Level FlightAware
02:56PM 41.0890 -108.6480 302° West 471 542 38,000  Level FlightAware
02:57PM 41.1260 -108.7260 302° West 472 543 38,000  Level FlightAware
02:58PM 41.1650 -108.8080 302° West 471 542 38,000  Level FlightAware
02:58PM 41.2070 -108.8970 302° West 472 543 38,000  Level FlightAware
02:59PM 41.2570 -109.0030 302° West 473 544 38,000  Level FlightAware
02:59PM 41.2990 -109.0920 302° West 474 545 38,000  Level FlightAware
03:00PM 41.2876 -109.0686 123° Southeast 475 547 38,000  Level FlightAware ADS-B (KMTJ)
03:01PM 41.3740 -109.2530 302° West 475 547 38,000  Level FlightAware
03:01PM 41.4140 -109.3390 302° West 474 545 38,000  Level FlightAware
03:02PM 41.4520 -109.4210 302° West 475 547 38,000  Level FlightAware
03:02PM 41.4990 -109.5220 302° West 475 547 38,000  Level FlightAware
03:03PM 41.5410 -109.6170 301° West 475 547 38,000  Level FlightAware
03:04PM 41.5760 -109.6940 301° West 475 547 38,000  Level FlightAware
03:04PM 41.6220 -109.7970 301° West 475 547 38,000  Level FlightAware
03:05PM 41.7080 -109.9800 302° West 477 549 38,000  Level FlightAware
03:06PM 41.7420 -110.0550 301° West 477 549 38,000  Level FlightAware
03:07PM 41.7770 -110.1350 300° West 477 549 38,000  Level FlightAware
03:07PM 41.8120 -110.2120 301° West 477 549 38,000  Level FlightAware
03:08PM 41.8470 -110.2900 301° West 477 549 38,000  Level FlightAware
03:08PM 41.8700 -110.3420 301° West 477 549 38,000  Level FlightAware
03:09PM 41.9410 -110.5000 301° West 477 549 38,000  Level FlightAware
03:10PM 41.9730 -110.5730 301° West 477 549 38,000  Level FlightAware
03:10PM 42.0000 -110.6320 302° West 477 549 38,000  Level FlightAware
03:12PM 42.1320 -110.9260 301° West 481 554 38,000  Level FlightAware
03:12PM 42.1918 -111.0630 301° West 38,000  Level FlightAware ADS-B
03:13PM 42.2020 -111.0860 301° West 481 554 38,000  Level FlightAware ADS-B
03:13PM 42.2359 -111.1630 301° West 481 554 38,000  Level FlightAware ADS-B
03:14PM 42.2823 -111.2700 300° West 481 554 38,000  Level FlightAware ADS-B
03:14PM 42.3239 -111.3650 301° West 481 554 38,000  Level FlightAware ADS-B
03:15PM 42.3773 -111.4890 300° West 482 555 38,000  Level FlightAware ADS-B
03:16PM 42.4141 -111.5740 300° West 483 556 38,000  Level FlightAware ADS-B
03:16PM 42.4563 -111.6720 300° West 483 556 38,000  Level FlightAware ADS-B
03:17PM 42.4924 -111.7560 300° West 483 556 38,000  Level FlightAware ADS-B
03:17PM 42.5261 -111.8350 300° West 483 556 38,000  Level FlightAware ADS-B
03:18PM 42.5599 -111.9140 300° West 484 557 38,000  Level FlightAware ADS-B
03:19PM 42.5994 -112.0070 300° West 484 557 38,000  Level FlightAware ADS-B
03:20PM 42.6936 -112.2300 300° West 484 557 38,000  Level FlightAware ADS-B
03:21PM 42.7720 -112.4160 300° West 485 558 38,000  Level FlightAware
03:22PM 42.7990 -112.4810 300° West 485 558 38,000  Level FlightAware
03:23PM 42.8851 -112.6810 300° West 485 558 38,000  Level FlightAware ADS-B
03:23PM 42.9220 -112.7550 304° West 485 558 38,000  Level FlightAware
03:24PM 42.9640 -112.8390 304° West 485 558 38,000  Level FlightAware
03:24PM 43.0040 -112.9200 304° West 486 559 38,000  Level FlightAware
03:25PM 43.0598 -113.0330 304° West 486 559 38,000  Level FlightAware ADS-B
03:25PM 43.0794 -113.0730 304° West 486 559 38,000  Level FlightAware ADS-B (KPVU)
03:26PM 43.1350 -113.1870 304° West 486 559 38,000  Level FlightAware
03:27PM 43.1700 -113.2570 304° West 486 559 38,000  Level FlightAware
03:28PM 43.2410 -113.4020 304° West 482 555 38,000  Level FlightAware
03:28PM 43.2920 -113.5070 304° West 482 555 38,000  Level FlightAware
03:29PM 43.3860 -113.7010 304° West 488 562 38,000  Level FlightAware ADS-B
03:30PM 43.4530 -113.8400 304° West 489 563 38,000  Level FlightAware ADS-B
03:31PM 43.4928 -113.9230 303° West 489 563 38,000  Level FlightAware ADS-B
03:32PM 43.5792 -114.1040 303° West 488 562 38,000  Level FlightAware ADS-B
03:33PM 43.6282 -114.2070 303° West 489 563 38,000  Level FlightAware ADS-B
03:34PM 43.7130 -114.3870 303° West 485 558 38,000  Level FlightAware
03:35PM 43.7860 -114.5410 303° West 484 557 38,000  Level FlightAware
03:35PM 43.8230 -114.6210 303° West 485 558 38,000  Level FlightAware
03:36PM 43.8730 -114.7270 303° West 484 557 38,000  Level FlightAware
03:37PM 43.9160 -114.8200 303° West 485 558 38,000  Level FlightAware
03:37PM 43.9690 -114.9350 303° West 489 563 38,000  Level FlightAware
03:38PM 44.0180 -115.0390 303° West 489 563 38,000  Level FlightAware
03:39PM 44.0650 -115.1430 302° West 489 563 38,000  Level FlightAware
03:39PM 44.1060 -115.2310 303° West 489 563 38,000  Level FlightAware
03:40PM 44.1560 -115.3410 302° West 490 564 38,000  Level FlightAware
03:41PM 44.2040 -115.4470 302° West 489 563 38,000  Level FlightAware
03:41PM 44.2530 -115.5530 303° West 489 563 38,000  Level FlightAware
03:42PM 44.3290 -115.7020 306° West 490 564 38,000  Level FlightAware
03:43PM 44.3770 -115.7950 306° West 489 563 38,000  Level FlightAware
03:44PM 44.4700 -115.9740 306° West 490 564 38,000  Level FlightAware
03:45PM 44.5540 -116.1390 306° West 489 563 38,000  Level FlightAware
03:46PM 44.6020 -116.2320 306° West 488 562 38,000  Level FlightAware
03:46PM 44.6430 -116.3120 306° West 488 562 38,000  Level FlightAware
03:47PM 44.6860 -116.3960 306° West 488 562 38,000  Level FlightAware
03:47PM 44.7330 -116.4900 305° West 489 563 38,000  Level FlightAware
03:48PM 44.7800 -116.5810 306° West 489 563 38,000  Level FlightAware
03:48PM 44.8190 -116.6600 305° West 489 563 38,000  Level FlightAware
03:49PM 44.8980 -116.8160 306° West 489 563 38,000  Level FlightAware
03:51PM 44.9860 -116.9930 305° West 488 562 38,000  Level FlightAware
03:52PM 45.0630 -117.1490 305° West 489 563 38,000  Level FlightAware
03:52PM 45.1040 -117.2320 305° West 489 563 38,000  Level FlightAware
03:53PM 45.1410 -117.3060 305° West 489 563 38,000  Level FlightAware
03:53PM 45.1960 -117.4180 305° West 489 563 38,000  Level FlightAware
03:54PM 45.2440 -117.5170 305° West 489 563 38,000  Level FlightAware
03:54PM 45.2900 -117.6120 305° West 489 563 38,000  Level FlightAware
03:55PM 45.3500 -117.7340 305° West 489 563 38,000  Level FlightAware
03:56PM 45.3900 -117.8170 304° West 489 563 38,000  Level FlightAware
03:56PM 45.4350 -117.9100 305° West 489 563 38,000  Level FlightAware
03:57PM 45.4720 -117.9880 304° West 490 564 38,000  Level FlightAware
03:58PM 45.5540 -118.1590 304° West 490 564 38,000  Level FlightAware
03:58PM 45.5930 -118.2410 304° West 490 564 38,000  Level FlightAware
03:59PM 45.6380 -118.3340 305° West 491 565 38,000  Level FlightAware
04:00PM 45.6860 -118.4370 304° West 491 565 38,000  Level FlightAware
04:00PM 45.7260 -118.5220 304° West 490 564 38,000  Level FlightAware
04:01PM 45.7670 -118.6080 304° West 491 565 38,000  Level FlightAware
04:01PM 45.8090 -118.6980 304° West 490 564 38,000  Level FlightAware
04:02PM 45.8430 -118.7700 304° West 490 564 38,000  Level FlightAware
04:03PM 45.9160 -118.9280 304° West 491 565 38,000  Level FlightAware
04:04PM 45.9970 -119.1040 304° West 490 564 38,000  Level FlightAware
04:04PM 46.0370 -119.1910 304° West 490 564 38,000  Level FlightAware
04:05PM 46.0950 -119.3170 304° West 490 564 38,000  Level FlightAware
04:06PM 46.1443 -119.4250 303° West 490 564 38,000  Level FlightAware ADS-B
04:06PM 46.1855 -119.5160 303° West 491 565 38,000  Level FlightAware ADS-B
04:07PM 46.2240 -119.6010 303° West 491 565 38,000  Level FlightAware ADS-B
04:07PM 46.2690 -119.7010 303° West 490 564 38,000  Level FlightAware
04:08PM 46.3120 -119.7950 304° West 489 563 38,000  Level FlightAware
04:09PM 46.3550 -119.8920 303° West 489 563 38,000  Level FlightAware
04:09PM 46.3950 -119.9820 303° West 488 562 38,000  Level FlightAware
04:10PM 46.4360 -120.0740 303° West 487 560 38,000  Level FlightAware
04:10PM 46.4810 -120.1750 303° West 487 560 38,000  Level FlightAware
04:11PM 46.5557 -120.3450 303° West 487 560 38,000  Level FlightAware ADS-B
04:12PM 46.5935 -120.4310 303° West 488 562 38,000  Level FlightAware ADS-B
04:12PM 46.6301 -120.5140 303° West 488 562 38,000  Level FlightAware ADS-B
04:13PM 46.6671 -120.5990 302° West 488 562 38,000  Level FlightAware ADS-B
04:13PM 46.7034 -120.6820 303° West 488 562 38,000  Level FlightAware ADS-B
04:14PM 46.7451 -120.7780 302° West 489 563 38,000  Level FlightAware ADS-B
04:14PM 46.7813 -120.8620 302° West 488 562 38,000  Level FlightAware ADS-B
04:15PM 46.8178 -120.9470 302° West 487 560 38,000  Level FlightAware ADS-B
04:15PM 46.8542 -121.0310 302° West 487 560 38,000  Level FlightAware ADS-B
04:16PM 46.8867 -121.1071 302° West 488 562 38,000  Level FlightAware ADS-B (EPKK / KRK)
04:16PM 46.8910 -121.1170 302° West 489 563 38,000  Level FlightAware ADS-B
04:16PM 46.9271 -121.2020 302° West 489 563 38,000  Level FlightAware ADS-B
04:17PM 46.9631 -121.2860 302° West 489 563 38,000  Level FlightAware ADS-B
04:17PM 46.9992 -121.3710 302° West 488 562 38,000  Level FlightAware ADS-B
04:18PM 47.0352 -121.4560 302° West 490 564 38,000  Level FlightAware ADS-B
04:18PM 47.0712 -121.5420 302° West 489 563 38,000  Level FlightAware ADS-B
04:19PM 47.1073 -121.6270 302° West 491 565 38,000  Level FlightAware ADS-B
04:19PM 47.1432 -121.7130 302° West 491 565 38,000  Level FlightAware ADS-B
04:20PM 47.1792 -121.7990 302° West 489 563 38,000  Level FlightAware ADS-B
04:20PM 47.1740 -121.7865 122° Southeast 489 563 38,000  Level FlightAware ADS-B (EPKK / KRK)
04:20PM 47.2157 -121.8870 301° West 490 564 38,000  Level FlightAware ADS-B
04:21PM 47.2199 -121.8969 302° West 490 564 38,000  Level FlightAware ADS-B (EPKK / KRK)
04:21PM 47.2534 -121.9780 301° West 491 565 38,000  Level FlightAware ADS-B
04:21PM 47.2506 -121.9707 119° Southeast 491 565 38,000  Level FlightAware ADS-B (EPKK / KRK)
04:22PM 47.2890 -122.0630 302° West 490 564 38,000  Level FlightAware ADS-B
04:22PM 47.3022 -122.0953 301° West 491 565 38,000  Level FlightAware ADS-B (EPKK / KRK)
04:22PM 47.3245 -122.1490 302° West 490 564 38,000  Level FlightAware ADS-B
04:22PM 47.3338 -122.1721 301° West 490 564 38,000  Level FlightAware ADS-B (EPKK / KRK)
04:22PM 47.3553 -122.2240 301° West 490 564 38,000  Level FlightAware ADS-B
04:23PM 47.3726 -122.2610 305° West 492 566 38,000  Level FlightAware ADS-B
04:23PM 47.3720 -122.2604 143° Southeast 492 566 38,000  Level FlightAware ADS-B (EPKK / KRK)
04:23PM 47.4040 -122.3210 308° West 493 567 38,000  Level FlightAware ADS-B
04:23PM 47.4168 -122.3424 311° West 494 568 38,000  Level FlightAware ADS-B (EPKK / KRK)
04:24PM 47.4547 -122.4030 313° West 494 568 38,000  Level FlightAware ADS-B
04:24PM 47.4605 -122.4121 313° West 494 568 38,000  Level FlightAware ADS-B (EPKK / KRK)
04:24PM 47.5009 -122.4780 312° West 493 567 38,000  Level FlightAware ADS-B
04:24PM 47.5128 -122.4972 313° West 487 560 38,000  Level FlightAware ADS-B (CYWH)
04:25PM 47.5505 -122.5580 313° West 493 567 38,000  Level FlightAware ADS-B
04:25PM 47.5584 -122.5714 311° West 487 560 38,000  Level FlightAware ADS-B (CYWH)
04:25PM 47.5969 -122.6340 312° West 493 567 38,000  Level FlightAware ADS-B
04:25PM 47.6091 -122.6544 312° West 488 562 38,000  Level FlightAware ADS-B (CYWH)
04:26PM 47.6430 -122.7100 312° West 493 567 38,000  Level FlightAware ADS-B
04:26PM 47.6540 -122.7280 312° West 488 562 38,000  Level FlightAware ADS-B (CYWH)
04:26PM 47.6894 -122.7860 312° West 493 567 38,000  Level FlightAware ADS-B
04:26PM 47.7050 -122.8116 312° West 494 568 38,000  Level FlightAware ADS-B (EPKK / KRK)
04:27PM 47.7371 -122.8640 312° West 494 568 38,000  Level FlightAware ADS-B
04:27PM 47.7493 -122.8843 312° West 494 568 38,000  Level FlightAware ADS-B (EPKK / KRK)
04:27PM 47.7837 -122.9410 312° West 493 567 38,000  Level FlightAware ADS-B
04:28PM 47.8226 -123.0055 312° West 487 560 38,000  Level FlightAware ADS-B (CYWH)
04:28PM 47.8296 -123.0170 312° West 492 566 38,000  Level FlightAware ADS-B
04:28PM 47.8672 -123.0794 312° West 486 559 38,000  Level FlightAware ADS-B (CYWH)
04:28PM 47.8754 -123.0930 312° West 491 565 38,000  Level FlightAware ADS-B
04:29PM 47.9168 -123.1618 312° West 491 565 38,000  Level FlightAware ADS-B (EPKK / KRK)
04:29PM 47.9213 -123.1690 313° West 491 565 38,000  Level FlightAware ADS-B
04:29PM 47.9512 -123.2193 312° West 486 559 38,000  Level FlightAware ADS-B (CYWH)
04:29PM 47.9672 -123.2460 312° West 492 566 38,000  Level FlightAware ADS-B
04:29PM 47.9802 -123.2678 312° West 486 559 38,000  Level FlightAware ADS-B (CYWH)
04:30PM 47.9962 -123.2945 312° West 486 559 38,000  Level FlightAware ADS-B (CYWH)
04:30PM 48.0107 -123.3189 312° West 487 560 38,000  Level FlightAware ADS-B (CYWH)
04:30PM 48.0192 -123.3330 312° West 492 566 38,000  Level FlightAware ADS-B
04:30PM 48.0267 -123.3457 312° West 486 559 38,000  Level FlightAware ADS-B (CYWH)
04:30PM 48.0418 -123.3710 312° West 487 560 38,000  Level FlightAware ADS-B (CYWH)
04:30PM 48.0650 -123.4100 312° West 492 566 38,000  Level FlightAware ADS-B
04:31PM 48.0856 -123.4445 312° West 492 566 38,000  Level FlightAware ADS-B (EPKK / KRK)
04:31PM 48.1106 -123.4870 311° West 492 566 38,000  Level FlightAware ADS-B
04:31PM 48.1425 -123.5404 312° West 492 566 38,000  Level FlightAware ADS-B (CYWH)
04:31PM 48.1557 -123.5630 311° West 492 566 38,000  Level FlightAware ADS-B
04:32PM 48.1921 -123.6244 312° West 492 566 38,000  Level FlightAware ADS-B (EPKK / KRK)
04:32PM 48.2011 -123.6400 311° West 492 566 38,000  Level FlightAware ADS-B
04:32PM 48.2372 -123.7008 312° West 492 566 38,000  Level FlightAware ADS-B (CYWH)
04:32PM 48.2465 -123.7170 311° West 492 566 38,000  Level FlightAware ADS-B
04:33PM 48.2777 -123.7699 312° West 493 567 38,000  Level FlightAware ADS-B (EPKK / KRK)
04:33PM 48.2931 -123.7960 311° West 492 566 38,000  Level FlightAware ADS-B
04:33PM 48.3270 -123.8538 311° West 492 566 38,000  Level FlightAware ADS-B (EPKK / KRK)
04:33PM 48.3416 -123.8790 311° West 492 566 38,000  Level FlightAware ADS-B
04:34PM 48.3841 -123.9518 311° West 492 566 38,000  Level FlightAware ADS-B (EPKK / KRK)
04:34PM 48.4080 -123.9930 311° West 492 566 38,000  Level FlightAware ADS-B
04:34PM 48.4405 -124.0487 311° West 490 564 38,000  Level FlightAware ADS-B (CYWH)
04:35PM 48.4536 -124.0710 311° West 490 564 38,000  Level FlightAware ADS-B
04:35PM 48.4861 -124.1272 311° West 491 565 38,000  Level FlightAware ADS-B (CYWH)
04:35PM 48.4997 -124.1510 311° West 490 564 38,000  Level FlightAware ADS-B
04:35PM 48.5309 -124.2048 311° West 490 564 38,000  Level FlightAware ADS-B (CYWH)
04:36PM 48.5445 -124.2280 312° West 490 564 38,000  Level FlightAware ADS-B
04:36PM 48.5808 -124.2914 311° West 490 564 38,000  Level FlightAware ADS-B (EPKK / KRK)
04:36PM 48.5900 -124.3070 312° West 491 565 38,000  Level FlightAware ADS-B
04:37PM 48.6246 -124.3678 311° West 491 565 38,000  Level FlightAware ADS-B (CYWH)
04:37PM 48.6344 -124.3850 311° West 491 565 38,000  Level FlightAware ADS-B
04:37PM 48.6800 -124.4640 311° West 490 564 38,000  Level FlightAware ADS-B
04:38PM 48.7272 -124.5473 311° West 490 564 38,000  Level FlightAware ADS-B (CYCD)
04:38PM 48.7417 -124.5730 310° West 490 564 38,000  Level FlightAware ADS-B
04:38PM 48.7722 -124.6262 311° West 491 565 38,000  Level FlightAware ADS-B (CYCD)
04:38PM 48.7872 -124.6530 310° West 491 565 38,000  Level FlightAware ADS-B
04:39PM 48.8159 -124.7033 311° West 492 566 38,000  Level FlightAware ADS-B (CYCD)
04:39PM 48.8318 -124.7310 311° West 491 565 38,000  Level FlightAware ADS-B
04:39PM 48.8548 -124.7722 310° West 492 566 38,000  Level FlightAware ADS-B (EPKK / KRK)
04:39PM 48.8775 -124.8120 311° West 491 565 38,000  Level FlightAware ADS-B
04:40PM 48.9113 -124.8721 311° West 492 566 38,000  Level FlightAware ADS-B (CYWH)
04:40PM 48.9234 -124.8940 310° West 492 566 38,000  Level FlightAware ADS-B
04:40PM 48.9597 -124.9583 311° West 492 566 38,000  Level FlightAware ADS-B (CYCD)
04:40PM 48.9676 -124.9720 311° West 492 566 38,000  Level FlightAware ADS-B
04:41PM 49.0050 -125.0394 310° West 492 566 38,000  Level FlightAware ADS-B (CYCD)
04:41PM 49.0121 -125.0520 311° West 492 566 38,000  Level FlightAware ADS-B
04:42PM 49.0657 -125.1480 310° West 494 568 38,000  Level FlightAware ADS-B
04:42PM 49.1082 -125.2245 310° West 495 570 38,000  Level FlightAware ADS-B (EPKK / KRK)
04:43PM 49.1613 -125.3203 310° West 495 570 38,000  Level FlightAware ADS-B (CYCD)
04:43PM 49.2084 -125.4055 310° West 495 570 38,000  Level FlightAware ADS-B (CYCD)
04:44PM 49.2566 -125.4932 310° West 495 570 38,000  Level FlightAware ADS-B (EPKK / KRK)
04:44PM 49.2948 -125.5627 310° West 495 570 38,000  Level FlightAware ADS-B (EPKK / KRK)
04:45PM 49.3464 -125.6571 310° West 495 570 38,000  Level FlightAware ADS-B (EPKK / KRK)
04:45PM 49.3886 -125.7344 310° West 495 570 38,000  Level FlightAware ADS-B (EPKK / KRK)
04:46PM 49.4325 -125.8150 310° West 494 568 38,000  Level FlightAware ADS-B (EPKK / KRK)
04:46PM 49.4756 -125.8946 310° West 494 568 38,000  Level FlightAware ADS-B (EPKK / KRK)
04:47PM 49.5214 -125.9793 310° West 494 568 38,000 180 Level FlightAware ADS-B (EPKK / KRK)
04:48PM 49.5881 -126.1031 310° West 496 571 38,300 480 Climbing FlightAware ADS-B (EPKK / KRK)
04:48PM 49.6349 -126.1906 310° West 496 571 38,600 900 Climbing FlightAware ADS-B (EPKK / KRK)
04:49PM 49.6965 -126.3060 310° West 489 563 39,400 960 Climbing FlightAware ADS-B (EPKK / KRK)
04:49PM 49.7481 -126.4028 310° West 484 557 40,000 300 Climbing FlightAware ADS-B (EPKK / KRK)
04:50PM 49.8420 -126.5790 310° West 481 554 40,000  Level FlightAware
04:51PM 49.8870 -126.6670 308° West 481 554 40,000  Level FlightAware
04:52PM 49.9350 -126.7580 309° West 482 555 40,000  Level FlightAware
04:52PM 50.0140 -126.9080 309° West 482 555 40,000  Level FlightAware
04:53PM 50.0350 -126.9480 309° West 482 555 40,000  Level FlightAware
04:54PM 50.1230 -127.1190 309° West 483 556 40,000  Level FlightAware
04:55PM 50.1850 -127.2400 309° West 485 558 40,000  Level FlightAware
04:55PM 50.2370 -127.3410 309° West 478 550 40,000  Level FlightAware
04:56PM 50.2920 -127.4470 309° West 486 559 40,000  Level FlightAware
04:56PM 50.3340 -127.5290 309° West 486 559 40,000  Level FlightAware
04:57PM 50.3780 -127.6170 308° West 486 559 40,000  Level FlightAware
04:58PM 50.4590 -127.7770 309° West 486 559 40,000  Level FlightAware
04:59PM 50.5530 -127.9650 308° West 486 559 40,000  Level FlightAware
04:59PM 50.5890 -128.0370 308° West 486 559 40,000  Level FlightAware
05:00PM 50.6100 -128.0790 308° West 486 559 40,000  Level FlightAware
05:00PM 50.6510 -128.1620 308° West 486 559 40,000  Level FlightAware
05:01PM 50.7420 -128.3450 308° West 485 558 40,000  Level FlightAware
05:02PM 50.7950 -128.4490 309° West 485 558 40,000  Level FlightAware
05:02PM 50.8240 -128.5060 309° West 485 558 40,000  Level FlightAware
05:03PM 50.8980 -128.6510 309° West 485 558 40,000  Level FlightAware
05:04PM 51.0360 -128.8450 319° Northwest 488 562 40,000  Level FlightAware
05:05PM 51.0870 -128.9280 314° West 488 562 40,000  Level FlightAware
05:06PM 51.1350 -129.0080 314° West 488 562 40,000  Level FlightAware
05:07PM 51.2170 -129.1440 314° West 488 562 40,000  Level FlightAware
05:07PM 51.2650 -129.2240 314° West 488 562 40,000  Level FlightAware
05:08PM 51.3130 -129.3030 314° West 488 562 40,000  Level FlightAware
05:09PM 51.3790 -129.4110 314° West 488 562 40,000  Level FlightAware
05:10PM 51.4590 -129.5440 314° West 488 562 40,000  Level FlightAware
05:10PM 51.5070 -129.6240 314° West 488 562 40,000  Level FlightAware
05:11PM 51.5720 -129.7330 314° West 488 562 40,000  Level FlightAware
05:12PM 51.6490 -129.8620 314° West 488 562 40,000  Level FlightAware
05:13PM 51.7120 -129.9660 314° West 488 562 40,000  Level FlightAware
05:14PM 51.7600 -130.0470 314° West 488 562 40,000  Level FlightAware
05:14PM 51.8250 -130.1560 314° West 488 562 40,000  Level FlightAware
05:15PM 51.9833 -130.4667 314° West 490 564 40,000  Level Anchorage Center
05:16PM 52.0667 -130.6333 309° West 490 564 40,000  Level Anchorage Center
05:17PM 52.1667 -130.8000 314° West 490 564 40,000  Level Anchorage Center
05:18PM 52.2500 -130.9500 312° West 490 564 40,000  Level Anchorage Center
05:19PM 52.3500 -131.1167 315° West 490 564 40,000  Level Anchorage Center
05:20PM 52.4333 -131.2833 309° West 490 564 40,000  Level Anchorage Center
05:21PM 52.5000 -131.4500 303° West 480 552 40,000  Level Vancouver Center
05:22PM 52.5833 -131.6167 309° West 480 552 40,000  Level Vancouver Center
05:23PM 52.6667 -131.7667 313° West 480 552 40,000  Level Vancouver Center
05:24PM 52.7500 -131.9500 307° West 480 552 40,000  Level Vancouver Center
05:25PM 52.8500 -132.1000 318° Northwest 480 552 40,000  Level Vancouver Center
05:26PM 52.9333 -132.2833 307° West 480 552 40,000  Level Vancouver Center
05:27PM 53.0167 -132.4333 313° West 490 564 40,000  Level Vancouver Center
05:28PM 53.1000 -132.6333 305° West 480 552 40,000  Level Vancouver Center
05:29PM 53.2000 -132.7833 318° Northwest 480 552 40,000  Level Vancouver Center
05:30PM 53.2833 -132.9500 310° West 480 552 40,000  Level Vancouver Center
05:31PM 53.3667 -133.1333 307° West 480 552 40,000  Level Vancouver Center
05:32PM 53.4667 -133.2833 318° Northwest 470 541 40,000  Level Vancouver Center
05:33PM 53.5500 -133.4833 305° West 480 552 40,000  Level Vancouver Center
05:34PM 53.6167 -133.6333 307° West 480 552 40,000  Level Vancouver Center
05:35PM 53.7000 -133.8000 310° West 480 552 40,000  Level Vancouver Center
05:36PM 53.7833 -133.9833 308° West 470 541 40,000  Level Vancouver Center
05:37PM 53.8833 -134.1500 316° Northwest 480 552 40,000  Level Vancouver Center
05:38PM 53.9667 -134.3167 310° West 480 552 40,000  Level Vancouver Center
05:39PM 54.0500 -134.4833 310° West 470 541 40,000  Level Vancouver Center
05:40PM 54.1667 -134.6667 317° Northwest 470 541 40,000  Level Anchorage Center
05:41PM 54.2500 -134.8500 308° West 470 541 40,000  Level Anchorage Center
05:42PM 54.2833 -135.0000 291° West 470 541 40,000  Level Vancouver Center
05:43PM 54.3667 -135.1667 311° West 470 541 40,000  Level Vancouver Center
05:44PM 54.4500 -135.3667 306° West 470 541 40,000  Level Vancouver Center
05:45PM 54.5500 -135.5333 316° Northwest 470 541 40,000  Level Vancouver Center
05:46PM 54.6333 -135.7000 311° West 470 541 40,000  Level Vancouver Center
05:47PM 54.7000 -135.8667 305° West 470 541 40,000  Level Vancouver Center
05:48PM 54.7833 -136.0500 308° West 470 541 40,000  Level Vancouver Center
05:49PM 54.8667 -136.2167 311° West 480 552 40,000  Level Vancouver Center
05:50PM 54.9500 -136.4167 306° West 480 552 40,000  Level Vancouver Center
05:51PM 55.0333 -136.5833 311° West 480 552 40,000  Level Vancouver Center
05:52PM 55.1167 -136.7667 309° West 480 552 40,000  Level Vancouver Center
05:53PM 55.1833 -136.9667 300° West 480 552 40,000  Level Vancouver Center
05:54PM 55.2667 -137.1333 311° West 480 552 40,000  Level Vancouver Center
05:55PM 55.3500 -137.3167 309° West 480 552 40,000  Level Vancouver Center
05:56PM 55.4333 -137.5000 309° West 470 541 40,000  Level Vancouver Center
05:57PM 55.5000 -137.7000 301° West 480 552 40,000  Level Vancouver Center
05:58PM 55.6000 -137.8833 314° West 470 541 40,000  Level Vancouver Center
05:59PM 55.6667 -138.0500 305° West 480 552 40,000  Level Vancouver Center
06:00PM 55.7500 -138.2667 304° West 480 552 40,000  Level Vancouver Center
06:01PM 55.8333 -138.4500 309° West 490 564 40,000  Level Vancouver Center
06:02PM 55.9167 -138.6500 307° West 490 564 40,000  Level Vancouver Center
06:03PM 56.0000 -138.8333 309° West 490 564 40,000  Level Vancouver Center
06:04PM 56.0667 -139.0500 299° West 490 564 40,000  Level Vancouver Center
06:05PM 56.1500 -139.2333 309° West 490 564 40,000  Level Vancouver Center
06:06PM 56.2333 -139.4167 309° West 480 552 40,000  Level Vancouver Center
06:07PM 56.3000 -139.6000 303° West 480 552 40,000  Level Vancouver Center
06:07PM 56.3333 -139.6000 360° North 460 529 40,000  Level Anchorage Center
06:08PM 56.4167 -139.8000 307° West 460 529 40,000  Level Anchorage Center
06:09PM 56.4833 -139.9833 303° West 470 541 40,000  Level Anchorage Center
06:10PM 56.5167 -140.2167 285° West 470 541 40,000  Level Vancouver Center
06:11PM 56.5833 -140.4167 301° West 470 541 40,000  Level Vancouver Center
06:12PM 56.6333 -140.6333 293° West 470 541 40,000  Level Vancouver Center
06:12PM 56.6500 -140.6333 360° North 460 529 40,000  Level Anchorage Center
06:13PM 56.7000 -140.8500 293° West 460 529 40,000  Level Anchorage Center
06:14PM 56.7500 -141.0667 293° West 460 529 40,000  Level Anchorage Center
06:15PM 56.8000 -141.2833 293° West 460 529 40,000  Level Anchorage Center
06:16PM 56.8667 -141.5000 299° West 460 529 40,000  Level Anchorage Center
06:17PM 56.9167 -141.7000 295° West 450 518 40,000  Level Anchorage Center
06:18PM 56.9667 -141.9167 293° West 460 529 40,000  Level Anchorage Center
06:19PM 57.0167 -142.1333 293° West 460 529 40,000  Level Anchorage Center
06:20PM 57.0667 -142.3500 293° West 460 529 40,000  Level Anchorage Center
06:21PM 57.1167 -142.5667 293° West 460 529 40,000  Level Anchorage Center
06:22PM 57.1500 -142.7833 286° West 450 518 40,000  Level Anchorage Center
06:23PM 57.2000 -143.0000 293° West 440 506 40,000  Level Anchorage Center
06:24PM 57.2500 -143.2333 292° West 460 529 40,000  Level Anchorage Center
06:25PM 57.3000 -143.4500 293° West 450 518 40,000  Level Anchorage Center
06:26PM 57.3500 -143.6667 293° West 450 518 40,000  Level Anchorage Center
06:27PM 57.3833 -143.8833 286° West 450 518 40,000  Level Anchorage Center
06:28PM 57.4333 -144.1000 293° West 450 518 40,000  Level Anchorage Center
06:29PM 57.4833 -144.3167 293° West 450 518 40,000  Level Anchorage Center
06:30PM 57.5333 -144.5500 292° West 460 529 40,000  Level Anchorage Center
06:31PM 57.5667 -144.7667 286° West 450 518 40,000  Level Anchorage Center
06:32PM 57.6167 -144.9833 293° West 460 529 40,000  Level Anchorage Center
06:33PM 57.6667 -145.2167 292° West 460 529 40,000  Level Anchorage Center
06:34PM 57.7167 -145.4333 293° West 460 529 40,000  Level Anchorage Center
06:35PM 57.7500 -145.6667 285° West 470 541 40,000  Level Anchorage Center
06:36PM 57.8000 -145.9000 292° West 460 529 40,000  Level Anchorage Center
06:37PM 57.8333 -146.1333 285° West 470 541 40,000  Level Anchorage Center
06:38PM 57.8833 -146.3667 292° West 460 529 40,000  Level Anchorage Center
06:39PM 57.9333 -146.6000 292° West 470 541 40,000  Level Anchorage Center
06:40PM 57.9667 -146.8333 285° West 470 541 40,000  Level Anchorage Center
06:41PM 58.0167 -147.0667 292° West 470 541 40,000  Level Anchorage Center
06:42PM 58.0500 -147.3000 285° West 450 518 40,000  Level Anchorage Center
06:43PM 58.1000 -147.5333 292° West 470 541 40,000  Level Anchorage Center
06:44PM 58.1333 -147.7667 285° West 460 529 40,000  Level Anchorage Center
06:45PM 58.1667 -148.0000 285° West 460 529 40,000  Level Anchorage Center
06:46PM 58.2167 -148.2333 292° West 450 518 40,000  Level Anchorage Center
06:52PM 58.4440 -149.6320 292° West 455 524 40,000  Level FlightAware
06:53PM 58.4770 -149.8480 286° West 456 525 40,000  Level FlightAware
06:54PM 58.5050 -150.0360 286° West 456 525 40,000  Level FlightAware
06:55PM 58.5350 -150.2370 286° West 456 525 40,000  Level FlightAware
06:55PM 58.5460 -150.3100 286° West 456 525 40,000  Level FlightAware
06:56PM 58.5770 -150.5180 286° West 456 525 40,000  Level FlightAware
06:57PM 58.5950 -150.6370 286° West 456 525 40,000  Level FlightAware
06:58PM 58.6130 -150.7590 286° West 456 525 40,000  Level FlightAware
06:58PM 58.6260 -150.8420 287° West 456 525 40,000  Level FlightAware
06:59PM 58.6550 -151.0410 286° West 456 525 40,000  Level FlightAware
07:00PM 58.6640 -151.4370 273° West 452 520 40,000  Level FlightAware
07:01PM 58.6820 -151.5920 283° West 451 519 40,000  Level FlightAware
07:01PM 58.6990 -151.7470 282° West 451 519 40,000  Level FlightAware
07:02PM 58.7160 -151.9160 281° West 451 519 40,000  Level FlightAware
07:03PM 58.7420 -152.1680 281° West 451 519 40,000  Level FlightAware
07:04PM 58.7570 -152.3220 281° West 451 519 40,000  Level FlightAware
07:05PM 58.7740 -152.4830 282° West 451 519 40,000  Level FlightAware
07:05PM 58.7860 -152.6080 281° West 451 519 40,000  Level FlightAware
07:06PM 58.7980 -152.7290 281° West 451 519 40,000  Level FlightAware
07:07PM 58.8140 -152.8900 281° West 451 519 40,000  Level FlightAware
07:08PM 58.8350 -153.0920 281° West 451 519 40,000  Level FlightAware
07:08PM 58.8430 -153.1720 281° West 451 519 40,000  Level FlightAware
07:09PM 58.8590 -153.3340 281° West 451 519 40,000  Level FlightAware
07:09PM 58.8670 -153.4150 281° West 451 519 40,000  Level FlightAware
07:10PM 58.8880 -153.6170 281° West 451 519 40,000  Level FlightAware
07:11PM 58.9040 -153.7790 281° West 451 519 40,000  Level FlightAware
07:12PM 58.9110 -153.8490 281° West 451 519 40,000  Level FlightAware
07:12PM 58.9333 -154.3667 281° West 450 518 40,000  Level Anchorage Center
07:13PM 58.9667 -154.6167 285° West 460 529 40,000  Level Anchorage Center
07:14PM 58.9833 -154.8500 278° West 440 506 40,000  Level Anchorage Center
07:15PM 59.0000 -155.1167 277° West 450 518 40,000  Level Anchorage Center
07:16PM 59.0167 -155.3667 277° West 460 529 40,000  Level Anchorage Center
07:19PM 59.0667 -155.8833 281° West 450 518 40,000  Level Anchorage Center
07:20PM 59.0667 -156.1000 270° West 450 518 40,000  Level Anchorage Center
07:21PM 59.1000 -156.3667 284° West 440 506 40,000  Level Anchorage Center
07:22PM 59.1167 -156.6000 278° West 450 518 40,000  Level Anchorage Center
07:23PM 59.1333 -156.8500 278° West 450 518 40,000  Level Anchorage Center
07:24PM 59.1333 -157.0500 270° West 450 518 40,000  Level Anchorage Center
07:25PM 59.1500 -157.3333 277° West 450 518 40,000  Level Anchorage Center
07:26PM 59.1667 -157.5833 278° West 450 518 40,000  Level Anchorage Center
07:27PM 59.1833 -157.8167 278° West 450 518 40,000  Level Anchorage Center
07:28PM 59.2000 -158.0667 278° West 450 518 40,000  Level Anchorage Center
07:29PM 59.2167 -158.3167 278° West 450 518 40,000  Level Anchorage Center
07:30PM 59.2167 -158.5667 270° West 450 518 40,000  Level Anchorage Center
07:31PM 59.2333 -158.8167 278° West 450 518 40,000  Level Anchorage Center
07:32PM 59.2500 -159.0500 278° West 460 529 40,000  Level Anchorage Center
07:33PM 59.2667 -159.3000 278° West 450 518 40,000  Level Anchorage Center
07:34PM 59.2667 -159.5667 270° West 450 518 40,000  Level Anchorage Center
07:35PM 59.2833 -159.8167 278° West 450 518 40,000  Level Anchorage Center
07:36PM 59.3000 -160.0667 278° West 450 518 40,000  Level Anchorage Center
07:37PM 59.3000 -160.3167 270° West 450 518 40,000  Level Anchorage Center
07:38PM 59.3167 -160.5667 278° West 450 518 40,000  Level Anchorage Center
07:39PM 59.3167 -160.8167 270° West 460 529 40,000  Level Anchorage Center
07:40PM 59.3333 -161.0667 278° West 450 518 40,000  Level Anchorage Center
07:41PM 59.3333 -161.3167 270° West 460 529 40,000  Level Anchorage Center
07:42PM 59.3333 -161.5667 270° West 450 518 40,000  Level Anchorage Center
07:43PM 59.3500 -161.8000 278° West 450 518 40,000  Level Anchorage Center
07:44PM 59.3500 -162.0500 270° West 460 529 40,000  Level Anchorage Center
07:45PM 59.3667 -162.3000 278° West 460 529 40,000  Level Anchorage Center
07:46PM 59.3667 -162.5500 270° West 460 529 40,000  Level Anchorage Center
07:47PM 59.3667 -162.8000 270° West 460 529 40,000  Level Anchorage Center
07:48PM 59.3833 -163.0667 277° West 470 541 40,000  Level Anchorage Center
07:49PM 59.3833 -163.3167 270° West 460 529 40,000  Level Anchorage Center
07:50PM 59.4000 -163.6167 276° West 460 529 40,000  Level Anchorage Center
07:51PM 59.4167 -163.8833 277° West 470 541 40,000  Level Anchorage Center
07:52PM 59.4167 -164.1333 270° West 470 541 40,000  Level Anchorage Center
07:53PM 59.4333 -164.3833 278° West 470 541 40,000  Level Anchorage Center
07:54PM 59.4333 -164.6500 270° West 470 541 40,000  Level Anchorage Center
07:54PM 59.4500 -164.8000 282° West 470 541 40,000  Level Anchorage Center
07:55PM 59.4500 -165.0667 270° West 470 541 40,000  Level Anchorage Center
07:56PM 59.4667 -165.3167 278° West 470 541 40,000  Level Anchorage Center
07:57PM 59.4667 -165.5833 270° West 470 541 40,000  Level Anchorage Center
07:58PM 59.4833 -165.8500 277° West 470 541 40,000  Level Anchorage Center
07:59PM 59.4833 -166.1000 270° West 460 529 40,000  Level Anchorage Center
08:00PM 59.4833 -166.3667 270° West 480 552 40,000  Level Anchorage Center
08:01PM 59.4833 -166.6500 270° West 460 529 40,000  Level Anchorage Center
08:02PM 59.5000 -166.9167 277° West 470 541 40,000  Level Anchorage Center
08:03PM 59.5000 -167.1667 270° West 470 541 40,000  Level Anchorage Center
08:04PM 59.5000 -167.4333 270° West 460 529 40,000  Level Anchorage Center
08:05PM 59.5000 -167.7000 270° West 480 552 40,000  Level Anchorage Center
08:06PM 59.4833 -167.9667 263° West 480 552 40,000  Level Anchorage Center
08:07PM 59.4667 -168.1833 261° West 450 518 40,000  Level Anchorage Center
08:08PM 59.4667 -168.4333 270° West 460 529 40,000  Level Anchorage Center
08:09PM 59.4500 -168.7000 263° West 470 541 40,000  Level Anchorage Center
08:10PM 59.4333 -168.9500 263° West 480 552 40,000  Level Anchorage Center
08:11PM 59.4167 -169.2167 263° West 480 552 40,000  Level Anchorage Center
08:12PM 59.4000 -169.4833 263° West 480 552 40,000  Level Anchorage Center
08:13PM 59.4000 -169.7333 270° West 470 541 40,000  Level Anchorage Center
08:14PM 59.3667 -170.0500 258° West 480 552 40,000  Level Anchorage Center
08:15PM 59.3500 -170.3167 263° West 490 564 40,000  Level Anchorage Center
08:16PM 59.3333 -170.5667 263° West 480 552 40,000  Level Anchorage Center
08:17PM 59.3167 -170.8333 263° West 480 552 40,000  Level Anchorage Center
08:18PM 59.3000 -171.0500 262° West 480 552 40,000  Level Anchorage Center
08:19PM 59.2833 -171.3000 263° West 470 541 40,000  Level Anchorage Center
08:20PM 59.2667 -171.5500 263° West 470 541 40,000  Level Anchorage Center
08:21PM 59.2500 -171.8167 263° West 480 552 40,000  Level Anchorage Center
08:22PM 59.2333 -172.0667 263° West 470 541 40,000  Level Anchorage Center
08:23PM 59.2167 -172.3333 263° West 470 541 40,000  Level Anchorage Center
08:24PM 59.1833 -172.5833 256° West 470 541 40,000  Level Anchorage Center
08:25PM 59.1667 -172.8500 263° West 490 564 40,000  Level Anchorage Center
08:26PM 59.1500 -173.1167 263° West 480 552 40,000  Level Anchorage Center
08:27PM 59.1167 -173.3667 256° West 480 552 40,000  Level Anchorage Center
08:28PM 59.1000 -173.6333 263° West 480 552 40,000  Level Anchorage Center
08:29PM 59.0667 -173.9000 256° West 490 564 40,000  Level Anchorage Center
08:30PM 59.0500 -174.1500 263° West 480 552 40,000  Level Anchorage Center
08:31PM 59.0000 -174.4000 249° West 460 529 40,000  Level Anchorage Center
08:32PM 58.9500 -174.6333 248° West 480 552 40,000  Level Anchorage Center
08:33PM 58.9000 -174.8833 249° West 490 564 40,000  Level Anchorage Center
08:34PM 58.8333 -175.1167 241° Southwest 480 552 40,000  Level Anchorage Center
08:35PM 58.7833 -175.3667 249° West 480 552 40,000  Level Anchorage Center
08:36PM 58.7333 -175.6000 248° West 470 541 40,000  Level Anchorage Center
08:37PM 58.6667 -175.8333 241° Southwest 490 564 40,000  Level Anchorage Center
08:38PM 58.6167 -176.0667 248° West 480 552 40,000  Level Anchorage Center
08:39PM 58.5667 -176.3000 248° West 480 552 40,000  Level Anchorage Center
08:40PM 58.5167 -176.5500 249° West 480 552 40,000  Level Anchorage Center
08:41PM 58.4500 -176.7833 241° Southwest 490 564 40,000  Level Anchorage Center
08:42PM 58.3833 -177.0167 241° Southwest 490 564 40,000  Level Anchorage Center
08:44PM 58.3833 -177.1000 245° Southwest 488 562 40,000  Level Anchorage Center
08:48PM 58.1000 -178.2167 244° Southwest 489 563 40,000  Level Anchorage Center
08:50PM 57.9741 -178.7017 243° Southwest 488 562 40,000  Level FlightAware Transoceanic
08:51PM 57.9140 -178.9275 243° Southwest 488 562 40,000  Level FlightAware Transoceanic
08:52PM 57.8535 -179.1525 243° Southwest 488 562 40,000  Level FlightAware Transoceanic
08:53PM 57.7926 -179.3768 243° Southwest 488 562 40,000  Level FlightAware Transoceanic
08:54PM 57.7365 -179.5789 243° Southwest 489 563 40,000  Level FlightAware Transoceanic
08:55PM 57.6745 -179.8033 243° Southwest 489 563 40,000  Level FlightAware Transoceanic
08:56PM 57.6121 179.9731 242° Southwest 489 563 40,000  Level FlightAware Transoceanic
08:57PM 57.5493 179.7503 242° Southwest 489 563 40,000  Level FlightAware Transoceanic
08:57PM 57.5167 179.6167 242° Southwest 491 565 40,000  Level Anchorage Center
08:58PM 57.4861 179.5282 242° Southwest 489 563 40,000  Level FlightAware Transoceanic
08:59PM 57.4225 179.3069 242° Southwest 489 563 40,000  Level FlightAware Transoceanic
09:00PM 57.3586 179.0864 242° Southwest 489 563 40,000  Level FlightAware Transoceanic
09:01PM 57.2943 178.8667 241° Southwest 489 563 40,000  Level FlightAware Transoceanic
09:02PM 57.2295 178.6477 241° Southwest 489 563 40,000  Level FlightAware Transoceanic
09:03PM 57.1801 178.4729 241° Southwest 491 565 40,000  Level FlightAware Transoceanic
09:04PM 57.1116 178.2466 241° Southwest 491 565 40,000  Level FlightAware Transoceanic
09:05PM 57.0426 178.0212 241° Southwest 491 565 40,000  Level FlightAware Transoceanic
09:06PM 56.9733 177.7966 240° Southwest 491 565 40,000  Level FlightAware Transoceanic
09:07PM 56.9035 177.5729 240° Southwest 491 565 40,000  Level FlightAware Transoceanic
09:07PM 56.8833 177.5167 241° Southwest 492 566 40,000  Level Anchorage Center
09:08PM 56.8333 177.3500 240° Southwest 491 565 40,000  Level FlightAware Transoceanic
09:08PM 56.8333 177.3500 240° Southwest 488 562 40,000  Level Anchorage Center
09:09PM 56.7647 177.1338 240° Southwest 491 565 40,000  Level FlightAware Transoceanic
09:10PM 56.6957 176.9184 240° Southwest 491 565 40,000  Level FlightAware Transoceanic
09:11PM 56.6263 176.7038 239° Southwest 491 565 40,000  Level FlightAware Transoceanic
09:12PM 56.5565 176.4900 239° Southwest 491 565 40,000  Level FlightAware Transoceanic
09:13PM 56.4994 176.3163 239° Southwest 492 566 40,000  Level FlightAware Transoceanic
09:14PM 56.4159 176.0647 239° Southwest 488 562 40,000  Level FlightAware Transoceanic
09:15PM 56.3451 175.8532 239° Southwest 488 562 40,000  Level FlightAware Transoceanic
09:16PM 56.2738 175.6425 239° Southwest 488 562 40,000  Level FlightAware Transoceanic
09:16PM 56.2167 175.5000 239° Southwest 490 564 40,000  Level Anchorage Center
09:17PM 56.2023 175.4327 238° Southwest 488 562 40,000  Level FlightAware Transoceanic
09:18PM 56.1304 175.2236 238° Southwest 488 562 40,000  Level FlightAware Transoceanic
09:18PM 56.1000 175.1667 238° Southwest 530 610 40,000  Level Anchorage Center
09:19PM 56.0581 175.0152 238° Southwest 488 562 40,000  Level FlightAware Transoceanic
09:19PM 56.0333 174.9833 237° Southwest 510 587 40,000  Level Anchorage Center
09:20PM 55.9855 174.8077 238° Southwest 488 562 40,000  Level FlightAware Transoceanic
09:20PM 55.9500 174.7500 238° Southwest 490 564 40,000  Level Anchorage Center
09:21PM 55.9125 174.6009 238° Southwest 488 562 40,000  Level FlightAware Transoceanic
09:21PM 55.9000 174.5833 242° Southwest 490 564 40,000  Level Anchorage Center
09:22PM 55.8392 174.3950 238° Southwest 488 562 40,000  Level FlightAware Transoceanic
09:22PM 55.8167 174.3500 238° Southwest 490 564 40,000  Level Anchorage Center
09:23PM 55.7753 174.2325 238° Southwest 490 564 40,000  Level FlightAware Transoceanic
09:23PM 55.7500 174.1833 235° Southwest 480 552 40,000  Level Anchorage Center
09:24PM 55.6667 173.9667 236° Southwest 480 552 40,000  Level Anchorage Center
09:25PM 55.6000 173.7500 241° Southwest 490 564 40,000  Level Anchorage Center
09:26PM 55.5333 173.5667 237° Southwest 500 575 40,000  Level Anchorage Center
09:27PM 55.4500 173.3333 238° Southwest 490 564 40,000  Level Anchorage Center
09:28PM 55.3833 173.1667 235° Southwest 480 552 40,000  Level Anchorage Center
09:29PM 55.3000 172.9500 236° Southwest 490 564 40,000  Level Anchorage Center
09:30PM 55.2333 172.7833 235° Southwest 480 552 40,000  Level Anchorage Center
09:31PM 55.1500 172.5667 236° Southwest 480 552 40,000  Level Anchorage Center
09:32PM 55.0667 172.3667 234° Southwest 480 552 40,000  Level Anchorage Center
09:33PM 55.0000 172.1833 238° Southwest 490 564 40,000  Level Anchorage Center
09:34PM 54.9167 171.9667 236° Southwest 490 564 40,000  Level Anchorage Center
09:35PM 54.8500 171.8000 235° Southwest 480 552 40,000  Level Anchorage Center
09:36PM 54.7667 171.6000 234° Southwest 480 552 40,000  Level Anchorage Center
09:37PM 54.7000 171.4333 235° Southwest 480 552 40,000  Level Anchorage Center
09:38PM 54.6167 171.2333 234° Southwest 490 564 40,000  Level Anchorage Center
09:39PM 54.5333 171.0333 234° Southwest 490 564 40,000  Level Anchorage Center
09:40PM 54.4500 170.8667 229° Southwest 490 564 40,000  Level Anchorage Center
09:41PM 54.3667 170.6667 234° Southwest 480 552 40,000  Level Anchorage Center
09:42PM 54.3000 170.5000 236° Southwest 480 552 40,000  Level Anchorage Center
09:43PM 54.2167 170.2833 237° Southwest 490 564 40,000  Level Anchorage Center
09:44PM 54.1500 170.1333 233° Southwest 480 552 40,000  Level Anchorage Center
09:46PM 53.9833 169.7667 232° Southwest 490 564 40,000  Level Anchorage Center
09:47PM 53.9000 169.5833 232° Southwest 480 552 40,000  Level Anchorage Center
09:48PM 53.8000 169.3833 230° Southwest 500 575 40,000  Level Anchorage Center
09:49PM 53.7333 169.2167 236° Southwest 500 575 40,000  Level Anchorage Center
09:50PM 53.6667 169.0000 243° Southwest 480 552 40,000  Level Anchorage Center
09:51PM 53.6000 168.8333 236° Southwest 490 564 40,000  Level Anchorage Center
09:52PM 53.5333 168.6167 243° Southwest 480 552 40,000  Level Anchorage Center
09:53PM 53.4667 168.4500 236° Southwest 490 564 40,000  Level Anchorage Center
09:54PM 53.4167 168.2333 239° Southwest 479 551 40,000  Level Anchorage Center
09:55PM 53.3500 168.0833 240° Southwest 483 556 40,000  Level Anchorage Center
10:01PM 52.9407 166.9427 239° Southwest 483 556 40,000  Level FlightAware Transoceanic
10:02PM 52.8714 166.7547 239° Southwest 483 556 40,000  Level FlightAware Transoceanic
10:03PM 52.8019 166.5674 238° Southwest 483 556 40,000  Level FlightAware Transoceanic
10:04PM 52.7320 166.3806 238° Southwest 483 556 40,000  Level FlightAware Transoceanic
10:05PM 52.6619 166.1944 238° Southwest 483 556 40,000  Level FlightAware Transoceanic
10:05PM 52.7000 166.2667 238° Southwest 477 549 40,000  Level Anchorage Center
10:06PM 52.5914 166.0088 238° Southwest 483 556 40,000  Level FlightAware Transoceanic
10:07PM 52.5207 165.8238 238° Southwest 483 556 40,000  Level FlightAware Transoceanic
10:08PM 52.4497 165.6394 238° Southwest 483 556 40,000  Level FlightAware Transoceanic
10:09PM 52.3784 165.4556 237° Southwest 483 556 40,000  Level FlightAware Transoceanic
10:10PM 52.3068 165.2724 237° Southwest 483 556 40,000  Level FlightAware Transoceanic
10:11PM 52.2571 165.1301 237° Southwest 477 549 40,000  Level FlightAware Transoceanic
10:12PM 52.1822 164.9429 237° Southwest 477 549 40,000  Level FlightAware Transoceanic
10:13PM 52.1071 164.7563 237° Southwest 477 549 40,000  Level FlightAware Transoceanic
10:14PM 52.0316 164.5704 236° Southwest 477 549 40,000  Level FlightAware Transoceanic
10:14PM 52.0167 164.5167 236° Southwest 478 550 40,000  Level Anchorage Center
10:15PM 51.9559 164.3850 236° Southwest 477 549 40,000  Level FlightAware Transoceanic
10:16PM 51.8798 164.2003 236° Southwest 477 549 40,000  Level FlightAware Transoceanic
10:17PM 51.8035 164.0163 236° Southwest 477 549 40,000  Level FlightAware Transoceanic
10:18PM 51.7269 163.8328 236° Southwest 477 549 40,000  Level FlightAware Transoceanic
10:19PM 51.6500 163.6500 236° Southwest 477 549 40,000  Level FlightAware Transoceanic
10:19PM 51.6500 163.6500 236° Southwest 474 545 40,000  Level Anchorage Center
10:20PM 51.5786 163.4780 236° Southwest 478 550 40,000  Level FlightAware Transoceanic
10:21PM 51.5070 163.3065 236° Southwest 478 550 40,000  Level FlightAware Transoceanic
10:22PM 51.4352 163.1356 236° Southwest 478 550 40,000  Level FlightAware Transoceanic
10:23PM 51.3630 162.9652 236° Southwest 478 550 40,000  Level FlightAware Transoceanic
10:24PM 51.2907 162.7953 236° Southwest 478 550 40,000  Level FlightAware Transoceanic
10:24PM 51.3167 162.8333 236° Southwest 471 542 40,000  Level Anchorage Center
10:25PM 51.2181 162.6260 236° Southwest 478 550 40,000  Level FlightAware Transoceanic
10:26PM 51.1452 162.4572 235° Southwest 474 545 40,000  Level FlightAware Transoceanic
10:27PM 51.0721 162.2890 235° Southwest 474 545 40,000  Level FlightAware Transoceanic
10:28PM 50.9988 162.1213 235° Southwest 474 545 40,000  Level FlightAware Transoceanic
10:29PM 50.9252 161.9541 235° Southwest 474 545 40,000  Level FlightAware Transoceanic
10:30PM 50.8702 161.8139 235° Southwest 471 542 40,000  Level FlightAware Transoceanic
10:31PM 50.7950 161.6459 235° Southwest 471 542 40,000  Level FlightAware Transoceanic
10:32PM 50.7195 161.4784 234° Southwest 471 542 40,000  Level FlightAware Transoceanic
10:33PM 50.6437 161.3115 234° Southwest 471 542 40,000  Level FlightAware Transoceanic
10:33PM 50.6000 161.2000 234° Southwest 463 533 40,000  Level Anchorage Center
10:34PM 50.5677 161.1451 234° Southwest 471 542 40,000  Level FlightAware Transoceanic
10:35PM 50.4915 160.9793 234° Southwest 471 542 40,000  Level FlightAware Transoceanic
10:36PM 50.4151 160.8140 234° Southwest 471 542 40,000  Level FlightAware Transoceanic
10:37PM 50.3384 160.6492 234° Southwest 471 542 40,000  Level FlightAware Transoceanic
10:38PM 50.2615 160.4850 234° Southwest 471 542 40,000  Level FlightAware Transoceanic
10:39PM 50.1843 160.3212 234° Southwest 471 542 40,000  Level FlightAware Transoceanic
10:40PM 50.1218 160.1824 233° Southwest 463 533 40,000  Level FlightAware Transoceanic
10:41PM 50.0413 160.0148 233° Southwest 463 533 40,000  Level FlightAware Transoceanic
10:42PM 49.9605 159.8478 233° Southwest 463 533 40,000  Level FlightAware Transoceanic
10:43PM 49.8794 159.6813 233° Southwest 463 533 40,000  Level FlightAware Transoceanic
10:44PM 49.7982 159.5154 233° Southwest 463 533 40,000  Level FlightAware Transoceanic
10:45PM 49.7167 159.3500 233° Southwest 463 533 40,000  Level FlightAware Transoceanic
10:46PM 49.6445 159.2026 233° Southwest 463 533 40,000  Level FlightAware Transoceanic
10:47PM 49.5721 159.0556 233° Southwest 463 533 40,000  Level FlightAware Transoceanic
10:48PM 49.4995 158.9090 233° Southwest 463 533 40,000  Level FlightAware Transoceanic
10:49PM 49.4267 158.7629 232° Southwest 463 533 40,000  Level FlightAware Transoceanic
10:50PM 49.3538 158.6172 232° Southwest 463 533 40,000  Level FlightAware Transoceanic
10:51PM 49.2806 158.4719 232° Southwest 463 533 40,000  Level FlightAware Transoceanic
10:52PM 49.2073 158.3271 232° Southwest 463 533 40,000  Level FlightAware Transoceanic
10:53PM 49.1338 158.1827 232° Southwest 463 533 40,000  Level FlightAware Transoceanic
10:54PM 49.0601 158.0387 232° Southwest 463 533 40,000  Level FlightAware Transoceanic
10:55PM 48.9863 157.8952 232° Southwest 463 533 40,000  Level FlightAware Transoceanic
10:56PM 48.9123 157.7520 232° Southwest 463 533 40,000  Level FlightAware Transoceanic
10:57PM 48.8381 157.6093 232° Southwest 463 533 40,000  Level FlightAware Transoceanic
10:58PM 48.7637 157.4671 232° Southwest 463 533 40,000  Level FlightAware Transoceanic
10:59PM 48.6891 157.3252 231° Southwest 463 533 40,000  Level FlightAware Transoceanic
11:00PM 48.6144 157.1838 231° Southwest 463 533 40,000  Level FlightAware Transoceanic
11:01PM 48.5395 157.0428 231° Southwest 463 533 40,000  Level FlightAware Transoceanic
11:02PM 48.4644 156.9022 231° Southwest 463 533 40,000  Level FlightAware Transoceanic
11:03PM 48.3891 156.7620 231° Southwest 463 533 40,000  Level FlightAware Transoceanic
11:04PM 48.3137 156.6222 231° Southwest 463 533 40,000  Level FlightAware Transoceanic
11:05PM 48.2381 156.4829 231° Southwest 463 533 40,000  Level FlightAware Transoceanic
11:06PM 48.1624 156.3439 231° Southwest 463 533 40,000  Level FlightAware Transoceanic
11:07PM 48.0865 156.2054 231° Southwest 463 533 40,000  Level FlightAware Transoceanic
11:08PM 48.0104 156.0673 230° Southwest 463 533 40,000  Level FlightAware Transoceanic
11:09PM 47.9341 155.9296 230° Southwest 463 533 40,000  Level FlightAware Transoceanic
11:10PM 47.8577 155.7923 230° Southwest 463 533 40,000  Level FlightAware Transoceanic
11:11PM 47.7811 155.6553 230° Southwest 463 533 40,000  Level FlightAware Transoceanic
11:12PM 47.7044 155.5188 230° Southwest 463 533 40,000  Level FlightAware Transoceanic
11:13PM 47.6275 155.3828 230° Southwest 463 533 40,000  Level FlightAware Transoceanic
11:14PM 47.5504 155.2471 230° Southwest 463 533 40,000  Level FlightAware Transoceanic
11:15PM 47.4732 155.1117 230° Southwest 463 533 40,000  Level FlightAware Transoceanic
11:16PM 47.3958 154.9768 230° Southwest 463 533 40,000  Level FlightAware Transoceanic
11:17PM 47.3183 154.8423 230° Southwest 463 533 40,000  Level FlightAware Transoceanic
11:18PM 47.2406 154.7082 229° Southwest 463 533 40,000  Level FlightAware Transoceanic
11:19PM 47.1627 154.5745 229° Southwest 463 533 40,000  Level FlightAware Transoceanic
11:20PM 47.0847 154.4412 229° Southwest 463 533 40,000  Level FlightAware Transoceanic
11:21PM 47.0066 154.3082 229° Southwest 463 533 40,000  Level FlightAware Transoceanic
11:22PM 46.9283 154.1757 229° Southwest 463 533 40,000  Level FlightAware Transoceanic
11:23PM 46.8498 154.0435 229° Southwest 463 533 40,000  Level FlightAware Transoceanic
11:24PM 46.7712 153.9117 229° Southwest 463 533 40,000  Level FlightAware Transoceanic
11:25PM 46.6924 153.7803 229° Southwest 463 533 40,000  Level FlightAware Transoceanic
11:26PM 46.6135 153.6494 229° Southwest 463 533 40,000  Level FlightAware Transoceanic
11:27PM 46.5344 153.5187 229° Southwest 463 533 40,000  Level FlightAware Transoceanic
11:28PM 46.4552 153.3885 228° Southwest 463 533 40,000  Level FlightAware Transoceanic
11:29PM 46.3758 153.2586 228° Southwest 463 533 40,000  Level FlightAware Transoceanic
11:30PM 46.2963 153.1291 228° Southwest 463 533 40,000  Level FlightAware Transoceanic
11:31PM 46.2135 152.9948 228° Southwest  Level FlightAware Approximate
11:32PM 46.2102 152.9897 228° Southwest  Level FlightAware Approximate
11:33PM 46.1267 152.8565 228° Southwest  Level FlightAware Approximate
11:34PM 46.0430 152.7237 228° Southwest  Level FlightAware Approximate
11:35PM 45.9591 152.5912 228° Southwest  Level FlightAware Approximate
11:36PM 45.8751 152.4592 228° Southwest  Level FlightAware Approximate
11:37PM 45.7910 152.3276 228° Southwest  Level FlightAware Approximate
11:38PM 45.7067 152.1964 227° Southwest  Level FlightAware Approximate
11:39PM 45.6222 152.0656 227° Southwest  Level FlightAware Approximate
11:40PM 45.5376 151.9352 227° Southwest  Level FlightAware Approximate
11:41PM 45.4529 151.8051 227° Southwest  Level FlightAware Approximate
11:42PM 45.3680 151.6755 227° Southwest  Level FlightAware Approximate
11:43PM 45.2830 151.5463 227° Southwest  Level FlightAware Approximate
11:44PM 45.1978 151.4174 227° Southwest  Level FlightAware Approximate
11:45PM 45.1124 151.2889 227° Southwest  Level FlightAware Approximate
11:46PM 45.0270 151.1608 227° Southwest  Level FlightAware Approximate
11:47PM 44.9413 151.0331 227° Southwest  Level FlightAware Approximate
11:48PM 44.8556 150.9058 226° Southwest  Level FlightAware Approximate
11:49PM 44.7697 150.7788 226° Southwest  Level FlightAware Approximate
11:50PM 44.6836 150.6523 226° Southwest  Level FlightAware Approximate
11:51PM 44.5975 150.5261 226° Southwest  Level FlightAware Approximate
11:52PM 44.5111 150.4003 226° Southwest  Level FlightAware Approximate
11:53PM 44.4247 150.2748 226° Southwest  Level FlightAware Approximate
11:54PM 44.3381 150.1497 226° Southwest  Level FlightAware Approximate
11:55PM 44.2514 150.0250 226° Southwest  Level FlightAware Approximate
11:56PM 44.1645 149.9007 226° Southwest  Level FlightAware Approximate
11:57PM 44.0775 149.7767 226° Southwest  Level FlightAware Approximate
11:58PM 43.9904 149.6531 226° Southwest  Level FlightAware Approximate
11:59PM 43.9037 149.5307 226° Southwest  Level FlightAware Approximate
12:00AM 43.8170 149.4087 225° Southwest  Level FlightAware Approximate
12:01AM 43.7301 149.2871 225° Southwest  Level FlightAware Approximate
12:02AM 43.6431 149.1658 225° Southwest  Level FlightAware Approximate
12:03AM 43.5559 149.0448 225° Southwest  Level FlightAware Approximate
12:04AM 43.4686 148.9242 225° Southwest  Level FlightAware Approximate
12:05AM 43.3812 148.8040 225° Southwest  Level FlightAware Approximate
12:06AM 43.2937 148.6841 225° Southwest  Level FlightAware Approximate
12:06AM 43.4660 148.9200 225° Southwest 394 453 40,000  Level FlightAware
12:07AM 43.2061 148.5645 225° Southwest  Level FlightAware Approximate
12:07AM 43.3980 148.8270 225° Southwest 393 452 40,000  Level FlightAware
12:08AM 43.3340 148.7390 225° Southwest 391 450 40,000  Level FlightAware
12:08AM 43.2710 148.6530 225° Southwest 391 450 40,000  Level FlightAware
12:09AM 43.2200 148.5830 225° Southwest 391 450 40,000  Level FlightAware
12:10AM 43.1420 148.4760 225° Southwest 390 449 40,000  Level FlightAware
12:11AM 43.1040 148.4250 224° Southwest 390 449 40,000  Level FlightAware
12:12AM 43.0070 148.2950 224° Southwest 388 447 40,000  Level FlightAware
12:13AM 42.9370 148.2010 225° Southwest 388 447 40,000  Level FlightAware
12:14AM 42.8800 148.1240 225° Southwest 389 448 40,000  Level FlightAware
12:15AM 42.7950 148.0090 225° Southwest 386 444 40,000  Level FlightAware
12:15AM 42.7520 147.9520 224° Southwest 386 444 40,000  Level FlightAware
12:15AM 42.7310 147.9240 224° Southwest 385 443 40,000  Level FlightAware
12:17AM 42.6410 147.8050 224° Southwest 386 444 40,000  Level FlightAware
12:18AM 42.5700 147.7110 224° Southwest 386 444 40,000  Level FlightAware
12:18AM 42.5050 147.6250 224° Southwest 386 444 40,000  Level FlightAware
12:19AM 42.4270 147.5230 224° Southwest 385 443 40,000  Level FlightAware
12:20AM 42.3430 147.4120 224° Southwest 383 441 40,000  Level FlightAware
12:21AM 42.2980 147.3540 224° Southwest 387 445 40,000  Level FlightAware
12:22AM 42.2590 147.3030 224° Southwest 386 444 40,000  Level FlightAware
12:22AM 42.1880 147.2110 224° Southwest 382 440 40,000  Level FlightAware
12:23AM 42.1170 147.1190 224° Southwest 381 438 40,000  Level FlightAware
12:24AM 42.0790 147.0690 224° Southwest 381 438 40,000  Level FlightAware
12:24AM 42.0350 147.0120 224° Southwest 381 438 40,000  Level FlightAware
12:26AM 41.9430 146.8930 224° Southwest 382 440 40,000  Level FlightAware
12:27AM 41.8590 146.7860 224° Southwest 382 440 40,000  Level FlightAware
12:27AM 41.8130 146.7270 224° Southwest 381 438 40,000  Level FlightAware
12:29AM 41.7160 146.6030 224° Southwest 383 441 40,000  Level FlightAware
12:29AM 41.6450 146.5120 224° Southwest 382 440 40,000  Level FlightAware
12:30AM 41.5670 146.4140 223° Southwest 384 442 40,000  Level FlightAware
12:31AM 41.5210 146.3560 223° Southwest 384 442 40,000  Level FlightAware
12:32AM 41.4300 146.2400 224° Southwest 379 436 40,000  Level FlightAware
12:33AM 41.3710 146.1660 223° Southwest 379 436 40,000  Level FlightAware
12:34AM 41.3260 146.1100 223° Southwest 381 438 40,000  Level FlightAware
12:34AM 41.2870 146.0600 224° Southwest 383 441 40,000  Level FlightAware
12:35AM 41.2080 145.9630 223° Southwest 384 442 40,000  Level FlightAware
12:36AM 41.1690 145.9140 223° Southwest 384 442 40,000  Level FlightAware
12:36AM 41.1250 145.8590 223° Southwest 384 442 40,000  Level FlightAware
12:37AM 41.0770 145.7990 223° Southwest 384 442 40,000  Level FlightAware
12:38AM 41.0050 145.7100 223° Southwest 384 442 40,000  Level FlightAware
12:39AM 40.9320 145.6200 223° Southwest 385 443 40,000  Level FlightAware
12:39AM 40.9000 145.5810 223° Southwest 385 443 40,000  Level FlightAware
12:40AM 40.8130 145.4740 223° Southwest 385 443 40,000  Level FlightAware
12:40AM 40.7800 145.4340 223° Southwest 392 451 40,000  Level FlightAware
12:42AM 40.6960 145.3310 223° Southwest 393 452 40,000  Level FlightAware
12:42AM 40.6490 145.2740 223° Southwest 393 452 40,000  Level FlightAware
12:43AM 40.6030 145.2180 223° Southwest 393 452 40,000  Level FlightAware
12:44AM 40.5360 145.1370 223° Southwest 393 452 40,000  Level FlightAware
12:45AM 40.4360 145.0170 222° Southwest 393 452 40,000  Level FlightAware
12:46AM 40.3460 144.9070 223° Southwest 395 455 40,000  Level FlightAware
12:47AM 40.2670 144.8120 223° Southwest 396 456 40,000  Level FlightAware
12:47AM 40.2350 144.7740 222° Southwest 397 457 40,000  Level FlightAware
12:48AM 40.1790 144.7080 222° Southwest 397 457 40,000  Level FlightAware
12:49AM 40.1370 144.6590 222° Southwest 397 457 40,000  Level FlightAware
12:49AM 40.0960 144.6100 222° Southwest 397 457 40,000  Level FlightAware
12:50AM 40.0400 144.5440 222° Southwest 397 457 40,000  Level FlightAware
12:51AM 39.9980 144.4950 222° Southwest 397 457 40,000  Level FlightAware
12:51AM 39.9410 144.4290 222° Southwest 397 457 40,000  Level FlightAware
12:52AM 39.8720 144.3470 222° Southwest 397 457 40,000  Level FlightAware
12:53AM 39.8440 144.3140 222° Southwest 397 457 40,000  Level FlightAware
12:53AM 39.8020 144.2650 222° Southwest 397 457 40,000  Level FlightAware
12:54AM 39.7600 144.2160 222° Southwest 397 457 40,000  Level FlightAware
12:55AM 39.7190 144.1670 223° Southwest 397 457 40,000  Level FlightAware
12:55AM 39.6630 144.1020 222° Southwest 397 457 40,000  Level FlightAware
12:56AM 39.6210 144.0530 222° Southwest 397 457 40,000  Level FlightAware
12:57AM 39.5790 144.0050 221° Southwest 397 457 40,000  Level FlightAware
12:57AM 39.5380 143.9560 223° Southwest 397 457 40,000  Level FlightAware
12:59AM 39.2960 143.6970 220° Southwest 417 480 40,000  Level FlightAware
01:00AM 39.1920 143.6530 198° South 423 487 40,000  Level FlightAware
01:00AM 39.1350 143.6290 198° South 423 487 40,000  Level FlightAware
01:01AM 39.0960 143.6120 199° South 423 487 40,000  Level FlightAware
01:01AM 39.0160 143.5710 202° Southwest 450 518 40,000  Level FlightAware
01:02AM 38.9190 143.5280 199° South 40,000  Level FlightAware
01:05AM 38.6942 143.2922 219° Southwest  Level Estimated
01:05AM 38.5790 143.3640 219° Southwest 432 497 40,000  Level FlightAware
01:06AM 38.5984 143.1923 219° Southwest  Level Estimated
01:06AM 38.4610 143.3060 201° Southwest 419 482 40,000  Level FlightAware
01:07AM 38.3810 143.2670 201° Southwest 419 482 40,000  Level FlightAware
01:08AM 38.3300 143.2420 201° Southwest 419 482 40,000  Level FlightAware
01:08AM 38.2830 143.2180 202° Southwest 420 483 40,000  Level FlightAware
01:09AM 38.2250 143.1910 200° South 420 483 40,000  Level FlightAware
01:09AM 38.1320 143.1450 201° Southwest 412 474 40,000  Level FlightAware
01:10AM 38.0860 143.1220 201° Southwest 411 473 40,000  Level FlightAware
01:11AM 37.9840 143.0730 201° Southwest 412 474 40,000  Level FlightAware
01:11AM 37.9330 143.0480 201° Southwest 413 475 40,000  Level FlightAware
01:12AM 37.8550 143.0100 201° Southwest 413 475 40,000  Level FlightAware
01:13AM 37.7510 142.9600 201° Southwest 416 479 40,000  Level FlightAware
01:13AM 37.6860 142.9280 201° Southwest 416 479 40,000  Level FlightAware
01:14AM 37.6400 142.9060 201° Southwest 417 480 40,000  Level FlightAware
01:14AM 37.5730 142.8740 201° Southwest 417 480 40,000  Level FlightAware
01:15AM 37.4980 142.8380 201° Southwest 418 481 40,000  Level FlightAware
01:16AM 37.4390 142.8100 201° Southwest 427 491 40,000  Level FlightAware
01:16AM 37.3610 142.7720 201° Southwest 418 481 40,000  Level FlightAware
01:17AM 37.3170 142.7520 200° South 418 481 40,000  Level FlightAware
01:17AM 37.2450 142.7170 201° Southwest 418 481 40,000  Level FlightAware
01:18AM 37.1970 142.6930 202° Southwest 424 488 40,000  Level FlightAware
01:18AM 37.1270 142.6520 205° Southwest 424 488 40,000  Level FlightAware
01:20AM 37.0110 142.5850 205° Southwest 422 486 40,000  Level FlightAware
01:20AM 36.9580 142.5540 205° Southwest 422 486 40,000  Level FlightAware
01:20AM 36.9180 142.5310 205° Southwest 422 486 40,000 -120 Level FlightAware
01:21AM 36.8670 142.5020 204° Southwest 423 487 39,900 -1,140 Descending FlightAware
01:21AM 36.8090 142.4680 205° Southwest 424 488 38,900 -2,220 Descending FlightAware
01:22AM 36.7220 142.4180 205° Southwest 450 518 37,100 -2,160 Descending FlightAware
01:23AM 36.6040 142.3510 205° Southwest 419 482 34,800 -1,620 Descending FlightAware
01:24AM 36.4900 142.2850 205° Southwest 441 507 33,600 -2,040 Descending FlightAware
01:25AM 36.3850 142.2260 204° Southwest 421 484 30,900 -2,640 Descending FlightAware
01:26AM 36.3090 142.1830 205° Southwest 410 472 29,500 -1,980 Descending FlightAware
01:27AM 36.2480 142.1480 205° Southwest 404 465 28,400 -1,860 Descending FlightAware
01:27AM 36.1960 142.1180 205° Southwest 399 459 27,400 -1,860 Descending FlightAware
01:28AM 36.1270 142.0790 205° Southwest 380 437 26,100 -1,680 Descending FlightAware
01:28AM 36.0870 142.0570 204° Southwest 383 441 25,400 -1,680 Descending FlightAware
01:29AM 36.0480 142.0340 205° Southwest 370 426 24,700 -1,980 Descending FlightAware
01:29AM 35.9930 142.0030 205° Southwest 374 430 23,700 -1,800 Descending FlightAware
01:30AM 35.9410 141.9740 204° Southwest 370 426 22,700 -1,500 Descending FlightAware
01:30AM 35.8840 141.9420 204° Southwest 359 413 21,900 -1,380 Descending FlightAware
01:31AM 35.8330 141.9140 204° Southwest 317 365 21,100 -1,680 Descending FlightAware
01:32AM 35.7500 141.8670 205° Southwest 286 329 19,000 -1,740 Descending FlightAware
01:33AM 35.7140 141.8470 204° Southwest 281 323 18,200 -1,440 Descending FlightAware
01:34AM 35.6380 141.8050 204° Southwest 272 313 16,800 -1,260 Descending FlightAware
01:35AM 35.5900 141.7660 213° Southwest 267 307 16,000 -720 Descending FlightAware
01:35AM 35.5810 141.7280 254° West 272 313 16,000  Level FlightAware
01:36AM 35.5760 141.6490 266° West 273 314 16,000 -480 Level FlightAware
01:36AM 35.5730 141.5960 266° West 269 310 15,300 -1,260 Descending FlightAware
01:37AM 35.5870 141.5240 283° West 282 325 14,200 -1,200 Descending FlightAware
01:38AM 35.6120 141.5080 333° Northwest 283 326 13,900 -720 Descending FlightAware
01:38AM 35.6540 141.4880 339° North 282 325 13,600 -720 Descending FlightAware
01:39AM 35.6840 141.4480 313° West 268 308 13,100 -780 Descending FlightAware
01:39AM 35.7040 141.3830 291° West 266 306 12,600 -660 Descending FlightAware
01:40AM 35.7190 141.3280 289° West 267 307 12,200 -660 Descending FlightAware
01:41AM 35.7340 141.2740 289° West 264 304 11,800 -660 Descending FlightAware
01:41AM 35.7680 141.2380 319° Northwest 261 300 11,400 -540 Descending FlightAware
01:42AM 35.7990 141.2290 347° North 281 323 11,300 -360 Descending FlightAware
01:42AM 35.8310 141.2180 344° North 269 310 11,100 -660 Descending FlightAware
01:43AM 35.8520 141.1670 297° West 255 293 10,600 -780 Descending FlightAware
01:44AM 35.8530 141.0910 271° West 255 293 10,000 -780 Descending FlightAware
01:44AM 35.8440 141.0360 259° West 250 288 9,500 -900 Descending FlightAware
01:45AM 35.8120 141.0030 220° Southwest 255 293 8,900 -1,020 Descending FlightAware
01:46AM 35.7800 140.9710 219° Southwest 251 289 8,300 -1,020 Descending FlightAware
01:46AM 35.7530 140.9440 219° Southwest 251 289 7,800 -1,020 Descending FlightAware
01:47AM 35.7200 140.9110 219° Southwest 251 289 7,200 -1,020 Descending FlightAware
01:47AM 35.6860 140.8770 219° Southwest 251 289 6,600 -1,080 Descending FlightAware
01:48AM 35.6470 140.8380 219° Southwest 253 291 5,800 -1,080 Descending FlightAware
01:48AM 35.6220 140.8130 219° Southwest 252 290 5,400 -1,020 Descending FlightAware
01:49AM 35.5950 140.7860 219° Southwest 252 290 4,900 -1,020 Descending FlightAware
01:49AM 35.5680 140.7580 220° Southwest 249 287 4,400 -720 Descending FlightAware
01:50AM 35.5340 140.7280 216° Southwest 230 265 4,100 -480 Descending FlightAware
01:51AM 35.5030 140.7150 199° South 210 242 3,900 -180 Descending FlightAware
01:51AM 35.4730 140.6800 224° Southwest 188 216 3,900  Level FlightAware
01:52AM 35.4630 140.6450 251° West 196 226 3,900  Level FlightAware
01:52AM 35.4730 140.6210 297° West 200 230 3,900  Level FlightAware
01:53AM 35.4930 140.5780 300° West 204 235 3,900  Level FlightAware
01:54AM 35.5230 140.5480 321° Northwest 203 234 3,900  Level FlightAware
01:54AM 35.5550 140.5260 331° Northwest 191 220 3,900 -180 Level FlightAware
01:55AM 35.5830 140.5060 330° Northwest 191 220 3,700 -720 Descending FlightAware
01:55AM 35.6020 140.4930 331° Northwest 190 219 3,200 -1,140 Descending FlightAware
01:56AM 35.6400 140.4650 329° Northwest 180 207 2,300 -1,080 Descending FlightAware
01:57AM 35.6690 140.4450 331° Northwest 173 199 1,700 -900 Descending FlightAware
01:57AM 35.6900 140.4290 328° Northwest 143 165 1,200 -840 Descending FlightAware
01:58AM 35.7070 140.4170 330° Northwest 136 157 800 -720 Descending FlightAware
01:59AM 35.7320 140.3990 330° Northwest 129 148 300 -720 Descending FlightAware
01:59AM 35.7400 140.3930 329° Northwest 130 150 100 -300 Descending FlightAware
01:59AM 35.7510 140.3850 329° Northwest 130 150 100  Level FlightAware